Peralta, NM (87042)

12:45 AM MDT on October 25, 2014 (GMT -0600)
Valencia Y | Change Station
CLOSE
Current Station
Personal Weather Station
Location: Los Lunas, NM
Elevation: 4852 ft
Nearby Weather Stations

Elev 4852 ft 34.81 °N, 106.70 °W | Updated 6 seconds ago

Clear
Clear
43.6 °F
Feels Like 44 °F
N
0.0
Wind Variable Wind from East
Gusts 0.0 mph

Today
High -- | Low -- °F
--% Chance of Precip.
Yesterday
High -- | Low -- °F
Precip. -- in
7:21 AM 6:19 PM
New Moon, 2% visible
Pressure 30.12 in
Visibility 10.0 miles
Clouds Clear
Windchill 44 °F
Dew Point 39 °F
Humidity 79%
Rainfall 0.00 in
Snow Depth Not available.
UV 0 out of 12
Pollen 3.50 out of 12
Air Quality Not available.
Flu Activity Sporadic
METAR KABQ 250552Z 11004KT 10SM CLR 16/01 A3029 RMK AO2 SLP197 T01560011 10250 20128 51009

More Conditions Fewer Conditions

Pressure 30.12 in
Visibility 10.0 miles
Clouds Clear
Windchill 44 °F
Dew Point 39 °F
Humidity 79%
Rainfall 0.00 in
Snow Depth Not available.
UV 0 out of 12
Pollen 3.50 out of 12
Air Quality Not available.
Flu Activity Sporadic
METAR KABQ 250552Z 11004KT 10SM CLR 16/01 A3029 RMK AO2 SLP197 T01560011 10250 20128 51009

More Conditions Fewer Conditions

10-Day Weather Forecast

Almanac

Astronomy

Oct. 25, 2014 Rise Set
Actual Time 7:21 AM MDT 6:19 PM MDT
Civil Twilight 6:55 AM MDT 6:45 PM MDT
Nautical Twilight 6:25 AM MDT 7:15 PM MDT
Astronomical Twilight 5:56 AM MDT 7:44 PM MDT
Moon 8:59 AM MDT 7:48 PM MDT
Length of Visible Light 11h 50m
Length of Day
10h 58m
Tomorrow will be 2m 0s shorter.
New Moon, 2% of the Moon is Illuminated
Today
New Moon
Oct 30
First Quarter
Nov 6
Full
Nov 14
Last Quarter
Nov 22
New

Community

WunderPhotos

Upload Photos

1,764,787 photos uploaded!

Nearby

Snow Depth

Station Depth Elevation
Quemazon 0 in 9500 ft
Senorita Divide #2 0 in 8600 ft
Santa Fe 1 in 11445 ft
Elk Cabin 0 in 8210 ft
Wesner Springs 0 in 11120 ft

Earthquake Activity

City Distance Mag. Time & Date
No recent earthquake activity has been reported nearby.
Minimum magnitude displayed is 2.5.

Coastal Water Temperatures

Place Temperature
No Stations Reporting

Nearby Weather Stations